createdAt,value
2019-06-01T00:00:27.757Z,402.10
2019-06-01T00:01:27.768Z,402.65
2019-06-01T00:02:27.739Z,401.70
2019-06-01T00:03:27.725Z,403.13
2019-06-01T00:04:27.737Z,402.42
2019-06-01T00:05:27.702Z,403.00
2019-06-01T00:06:27.699Z,403.10
2019-06-01T00:07:27.681Z,403.88
2019-06-01T00:08:27.670Z,403.67
2019-06-01T00:09:27.687Z,400.89
2019-06-01T00:10:27.658Z,401.67
2019-06-01T00:11:27.634Z,402.44
2019-06-01T00:12:27.640Z,402.91
2019-06-01T00:13:27.626Z,402.63
2019-06-01T00:14:27.625Z,405.54
2019-06-01T00:15:27.593Z,401.25
2019-06-01T00:16:27.579Z,402.41
2019-06-01T00:17:27.564Z,404.04
2019-06-01T00:18:27.566Z,402.54
2019-06-01T00:19:27.577Z,402.50
2019-06-01T00:20:27.545Z,401.62
2019-06-01T00:21:27.522Z,401.10
2019-06-01T00:22:27.516Z,402.35
2019-06-01T00:23:27.506Z,402.83
2019-06-01T00:24:27.520Z,401.20
2019-06-01T00:25:27.482Z,402.46
2019-06-01T00:26:27.476Z,403.27
2019-06-01T00:27:27.458Z,402.59
2019-06-01T00:28:27.448Z,402.98
2019-06-01T00:29:27.465Z,401.35
2019-06-01T00:30:27.692Z,406.02
2019-06-01T00:31:27.417Z,402.98
2019-06-01T00:32:27.426Z,402.05
2019-06-01T00:33:27.403Z,401.51
2019-06-01T00:34:27.404Z,402.72
2019-06-01T00:35:27.392Z,402.70
2019-06-01T00:36:27.360Z,401.29
2019-06-01T00:37:27.347Z,404.05
2019-06-01T00:38:27.338Z,401.83
2019-06-01T00:39:27.361Z,402.96
2019-06-01T00:40:27.322Z,403.60
2019-06-01T00:41:27.362Z,402.89
2019-06-01T00:42:27.303Z,401.58
2019-06-01T00:43:27.343Z,402.04
2019-06-01T00:44:27.287Z,403.86
2019-06-01T00:45:27.249Z,410.25
2019-06-01T00:46:27.245Z,401.20
2019-06-01T00:47:27.240Z,403.59
2019-06-01T00:48:27.230Z,403.55
2019-06-01T00:49:27.228Z,401.59
2019-06-01T00:50:27.222Z,402.85
2019-06-01T00:51:27.195Z,402.20
2019-06-01T00:52:27.209Z,402.93
2019-06-01T00:53:27.164Z,402.21
2019-06-01T00:54:27.179Z,401.69
2019-06-01T00:55:27.154Z,403.38
2019-06-01T00:56:27.139Z,402.44
2019-06-01T00:57:27.130Z,401.77
2019-06-01T00:58:27.115Z,402.34
2019-06-01T00:59:27.121Z,401.87
2019-06-01T01:00:42.526Z,400.68
2019-06-01T01:01:28.081Z,403.50
2019-06-01T01:02:27.069Z,402.40
2019-06-01T01:03:27.064Z,402.09
2019-06-01T01:04:27.066Z,401.00
2019-06-01T01:05:27.031Z,403.38
2019-06-01T01:06:27.744Z,401.09
2019-06-01T01:07:27.015Z,403.34
2019-06-01T01:08:27.008Z,404.11
2019-06-01T01:09:27.020Z,403.87
2019-06-01T01:10:26.980Z,402.00
2019-06-01T01:11:26.965Z,401.64
2019-06-01T01:12:26.970Z,401.92
2019-06-01T01:13:26.949Z,400.70
2019-06-01T01:14:26.954Z,401.07
2019-06-01T01:15:26.918Z,401.95
2019-06-01T01:16:26.913Z,402.21
2019-06-01T01:17:26.897Z,401.64
2019-06-01T01:18:26.891Z,403.42
2019-06-01T01:19:26.905Z,402.75
2019-06-01T01:20:26.864Z,402.87
2019-06-01T01:21:26.854Z,403.69
2019-06-01T01:22:26.877Z,401.96
2019-06-01T01:23:26.875Z,402.73
2019-06-01T01:24:26.845Z,402.50
2019-06-01T01:25:26.824Z,402.56
2019-06-01T01:26:26.804Z,403.01
2019-06-01T01:27:26.794Z,403.04
2019-06-01T01:28:26.778Z,400.91
2019-06-01T01:29:26.790Z,402.13
2019-06-01T01:30:26.758Z,402.38
2019-06-01T01:31:26.754Z,402.32
2019-06-01T01:32:26.738Z,402.89
2019-06-01T01:33:26.731Z,402.29
2019-06-01T01:34:26.728Z,400.57
2019-06-01T01:35:26.704Z,402.40
2019-06-01T01:36:26.694Z,401.65
2019-06-01T01:37:26.732Z,402.43
2019-06-01T01:38:26.672Z,403.45
2019-06-01T01:39:26.684Z,403.93
2019-06-01T01:40:26.692Z,403.12
2019-06-01T01:41:26.632Z,402.62
2019-06-01T01:42:26.632Z,403.84
2019-06-01T01:43:26.615Z,403.14
2019-06-01T01:44:26.645Z,403.66
2019-06-01T01:45:26.597Z,403.14
2019-06-01T01:46:26.584Z,403.57
2019-06-01T01:47:26.586Z,404.27
2019-06-01T01:48:27.330Z,403.02
2019-06-01T01:49:26.582Z,403.81
2019-06-01T01:50:26.552Z,404.37
2019-06-01T01:51:26.530Z,404.12
2019-06-01T01:52:26.555Z,403.37
2019-06-01T01:53:26.511Z,403.86
2019-06-01T01:54:26.537Z,403.15
2019-06-01T01:55:26.563Z,403.72
2019-06-01T01:56:26.478Z,404.09
2019-06-01T01:57:26.475Z,403.01
2019-06-01T01:58:27.282Z,404.68
2019-06-01T01:59:26.432Z,403.42
2019-06-01T02:00:26.456Z,402.93
2019-06-01T02:01:26.423Z,404.88
2019-06-01T02:02:26.408Z,402.91
2019-06-01T02:03:26.398Z,403.88
2019-06-01T02:04:26.389Z,403.76
2019-06-01T02:05:26.385Z,404.04
2019-06-01T02:06:28.933Z,404.60
2019-06-01T02:07:26.356Z,403.84
2019-06-01T02:08:26.341Z,403.08
2019-06-01T02:09:26.323Z,403.27
2019-06-01T02:10:26.335Z,403.96
2019-06-01T02:11:26.309Z,403.56
2019-06-01T02:12:26.295Z,404.53
2019-06-01T02:13:26.289Z,402.70
2019-06-01T02:14:26.280Z,403.86
2019-06-01T02:15:26.299Z,403.51
2019-06-01T02:16:26.281Z,403.73
2019-06-01T02:17:26.267Z,404.12
2019-06-01T02:18:26.232Z,403.54
2019-06-01T02:19:26.218Z,404.25
2019-06-01T02:20:26.233Z,403.00
2019-06-01T02:21:26.203Z,403.77
2019-06-01T02:22:26.189Z,404.44
2019-06-01T02:23:26.181Z,403.06
2019-06-01T02:24:26.158Z,402.56
2019-06-01T02:25:26.166Z,403.40
2019-06-01T02:26:26.138Z,404.01
2019-06-01T02:27:26.170Z,402.52
2019-06-01T02:28:26.123Z,402.77
2019-06-01T02:29:26.117Z,404.78
2019-06-01T02:30:26.134Z,402.69
2019-06-01T02:31:40.910Z,403.92
2019-06-01T02:32:27.069Z,406.52
2019-06-01T02:33:26.066Z,403.04
2019-06-01T02:34:26.062Z,403.61
2019-06-01T02:35:26.069Z,404.90
2019-06-01T02:36:26.038Z,403.55
2019-06-01T02:37:26.028Z,403.80
2019-06-01T02:38:26.010Z,402.30
2019-06-01T02:39:25.994Z,402.93
2019-06-01T02:40:26.378Z,402.65
2019-06-01T02:41:25.976Z,402.76
2019-06-01T02:42:25.968Z,403.57
2019-06-01T02:43:26.860Z,403.36
2019-06-01T02:44:25.946Z,402.59
2019-06-01T02:45:25.957Z,405.25
2019-06-01T02:46:25.929Z,402.76
2019-06-01T02:47:25.976Z,403.88
2019-06-01T02:48:25.933Z,403.00
2019-06-01T02:49:25.905Z,402.84
2019-06-01T02:50:25.938Z,402.83
2019-06-01T02:51:25.859Z,403.46
2019-06-01T02:52:25.869Z,404.48
2019-06-01T02:53:25.832Z,404.33
2019-06-01T02:54:25.835Z,403.89
2019-06-01T02:55:25.860Z,405.40
2019-06-01T02:56:25.809Z,404.42
2019-06-01T02:57:25.800Z,402.96
2019-06-01T02:58:25.788Z,404.73
2019-06-01T02:59:25.783Z,403.58
2019-06-01T03:00:25.803Z,403.44
2019-06-01T03:01:25.750Z,403.80
2019-06-01T03:02:25.732Z,404.12
2019-06-01T03:03:25.726Z,403.97
2019-06-01T03:04:25.723Z,402.59
2019-06-01T03:05:25.723Z,404.54
2019-06-01T03:06:25.694Z,404.14
2019-06-01T03:07:25.683Z,402.83
2019-06-01T03:08:25.670Z,404.80
2019-06-01T03:09:25.661Z,403.09
2019-06-01T03:10:25.670Z,403.59
2019-06-01T03:11:25.631Z,403.95
2019-06-01T03:12:25.624Z,404.76
2019-06-01T03:13:25.628Z,402.97
2019-06-01T03:14:25.606Z,402.54
2019-06-01T03:15:25.623Z,404.88
2019-06-01T03:16:25.582Z,403.52
2019-06-01T03:17:25.580Z,403.21
2019-06-01T03:18:25.574Z,403.71
2019-06-01T03:19:25.565Z,403.72
2019-06-01T03:20:25.565Z,403.67
2019-06-01T03:21:25.518Z,403.28
2019-06-01T03:22:25.520Z,402.48
2019-06-01T03:23:25.513Z,404.18
2019-06-01T03:24:25.500Z,402.56
2019-06-01T03:25:25.506Z,403.86
2019-06-01T03:26:26.365Z,403.05
2019-06-01T03:27:25.463Z,402.74
2019-06-01T03:28:25.454Z,403.02
2019-06-01T03:29:25.482Z,403.71
2019-06-01T03:30:25.458Z,405.02
2019-06-01T03:31:25.413Z,403.04
2019-06-01T03:32:36.344Z,404.14
2019-06-01T03:33:26.401Z,403.28
2019-06-01T03:34:25.412Z,405.11
2019-06-01T03:35:25.380Z,403.80
2019-06-01T03:36:25.393Z,403.85
2019-06-01T03:37:25.350Z,404.92
2019-06-01T03:38:25.337Z,404.89
2019-06-01T03:39:25.349Z,403.96
2019-06-01T03:40:25.329Z,405.11
2019-06-01T03:41:25.321Z,402.95
2019-06-01T03:42:25.323Z,405.95
2019-06-01T03:43:25.291Z,402.85
2019-06-01T03:44:25.277Z,403.86
2019-06-01T03:45:25.262Z,402.79
2019-06-01T03:46:25.401Z,404.31
2019-06-01T03:47:25.241Z,403.64
2019-06-01T03:48:25.227Z,402.89
2019-06-01T03:49:25.217Z,403.14
2019-06-01T03:50:25.215Z,403.51
2019-06-01T03:51:25.207Z,403.26
2019-06-01T03:52:25.187Z,403.45
2019-06-01T03:53:25.166Z,402.61
2019-06-01T03:54:25.157Z,405.24
2019-06-01T03:55:25.150Z,403.36
2019-06-01T03:56:25.159Z,402.47
2019-06-01T03:57:25.129Z,402.86
2019-06-01T03:58:25.149Z,404.29
2019-06-01T03:59:25.112Z,404.67
2019-06-01T04:00:25.099Z,405.09
2019-06-01T04:01:25.113Z,403.00
2019-06-01T04:02:32.783Z,404.08
2019-06-01T04:03:26.126Z,403.66
2019-06-01T04:04:25.056Z,404.81
2019-06-01T04:05:25.040Z,403.76
2019-06-01T04:06:25.039Z,404.86
2019-06-01T04:07:25.020Z,403.85
2019-06-01T04:08:25.022Z,403.68
2019-06-01T04:09:25.017Z,403.89
2019-06-01T04:10:25.798Z,403.69
2019-06-01T04:11:25.006Z,402.75
2019-06-01T04:12:24.971Z,404.03
2019-06-01T04:13:24.944Z,402.98
2019-06-01T04:14:25.891Z,403.87
2019-06-01T04:15:24.920Z,403.19
2019-06-01T04:16:24.962Z,403.16
2019-06-01T04:17:24.900Z,402.27
2019-06-01T04:18:24.898Z,404.37
2019-06-01T04:19:24.881Z,403.58
2019-06-01T04:20:24.876Z,404.30
2019-06-01T04:21:24.892Z,404.50
2019-06-01T04:22:24.843Z,404.52
2019-06-01T04:23:24.840Z,402.96
2019-06-01T04:24:24.847Z,404.38
2019-06-01T04:25:24.812Z,403.04
2019-06-01T04:26:24.831Z,404.10
2019-06-01T04:27:24.808Z,402.93
2019-06-01T04:28:24.784Z,403.99
2019-06-01T04:29:24.774Z,404.16
2019-06-01T04:30:24.771Z,403.73
2019-06-01T04:31:24.784Z,405.00
2019-06-01T04:32:24.755Z,404.97
2019-06-01T04:33:25.391Z,403.78
2019-06-01T04:34:24.789Z,404.37
2019-06-01T04:35:24.705Z,404.31
2019-06-01T04:36:24.718Z,404.52
2019-06-01T04:37:24.688Z,405.33
2019-06-01T04:38:24.678Z,404.02
2019-06-01T04:39:24.665Z,403.95
2019-06-01T04:40:24.646Z,403.49
2019-06-01T04:41:24.663Z,404.06
2019-06-01T04:42:24.624Z,404.00
2019-06-01T04:43:24.618Z,403.13
2019-06-01T04:44:24.604Z,404.86
2019-06-01T04:45:24.597Z,403.76
2019-06-01T04:46:24.603Z,404.02
2019-06-01T04:47:24.573Z,402.90
2019-06-01T04:48:24.575Z,404.33
2019-06-01T04:49:24.549Z,403.10
2019-06-01T04:50:24.548Z,404.22
2019-06-01T04:51:24.544Z,403.34
2019-06-01T04:52:24.517Z,404.46
2019-06-01T04:53:24.507Z,402.90
2019-06-01T04:54:24.495Z,405.68
2019-06-01T04:55:24.492Z,403.50
2019-06-01T04:56:24.499Z,404.39
2019-06-01T04:57:24.473Z,403.80
2019-06-01T04:58:24.469Z,404.78
2019-06-01T04:59:24.469Z,404.39
2019-06-01T05:00:27.957Z,404.52
2019-06-01T05:01:24.433Z,404.51
2019-06-01T05:02:24.411Z,405.95
2019-06-01T05:03:24.397Z,405.55
2019-06-01T05:04:24.389Z,406.15
2019-06-01T05:05:24.378Z,404.00
2019-06-01T05:06:24.374Z,405.51
2019-06-01T05:07:24.346Z,405.92
2019-06-01T05:08:24.339Z,403.80
2019-06-01T05:09:24.321Z,404.45
2019-06-01T05:10:24.313Z,405.06
2019-06-01T05:11:24.327Z,404.03
2019-06-01T05:12:24.300Z,405.14
2019-06-01T05:13:24.308Z,404.68
2019-06-01T05:14:24.275Z,405.73
2019-06-01T05:15:24.261Z,404.29
2019-06-01T05:16:24.275Z,405.14
2019-06-01T05:17:24.239Z,403.62
2019-06-01T05:18:24.226Z,404.81
2019-06-01T05:19:24.222Z,404.26
2019-06-01T05:20:24.212Z,404.23
2019-06-01T05:21:24.214Z,403.62
2019-06-01T05:22:24.183Z,405.32
2019-06-01T05:23:24.178Z,405.22
2019-06-01T05:24:24.162Z,404.20
2019-06-01T05:25:24.158Z,404.40
2019-06-01T05:26:24.156Z,405.40
2019-06-01T05:27:24.124Z,405.22
2019-06-01T05:28:24.110Z,404.57
2019-06-01T05:29:24.117Z,405.32
2019-06-01T05:30:24.096Z,405.06
2019-06-01T05:31:25.328Z,404.62
2019-06-01T05:32:24.096Z,404.94
2019-06-01T05:33:36.439Z,405.99
2019-06-01T05:34:25.057Z,405.12
2019-06-01T05:35:24.043Z,404.14
2019-06-01T05:36:24.023Z,405.97
2019-06-01T05:37:24.028Z,404.42
2019-06-01T05:38:23.995Z,404.83
2019-06-01T05:39:24.007Z,408.90
2019-06-01T05:40:23.989Z,407.85
2019-06-01T05:41:23.990Z,405.95
2019-06-01T05:42:23.978Z,403.88
2019-06-01T05:43:23.971Z,405.70
2019-06-01T05:44:23.934Z,404.99
2019-06-01T05:45:23.955Z,403.41
2019-06-01T05:46:23.908Z,405.13
2019-06-01T05:47:23.928Z,404.39
2019-06-01T05:48:28.475Z,405.16
2019-06-01T05:49:24.888Z,403.82
2019-06-01T05:50:23.873Z,403.93
2019-06-01T05:51:23.867Z,405.10
2019-06-01T05:52:23.858Z,403.90
2019-06-01T05:53:23.841Z,404.80
2019-06-01T05:54:23.827Z,406.13
2019-06-01T05:55:23.824Z,404.99
2019-06-01T05:56:23.804Z,403.90
2019-06-01T05:57:23.812Z,407.67
2019-06-01T05:58:23.789Z,405.25
2019-06-01T05:59:23.779Z,405.16
2019-06-01T06:00:23.762Z,405.73
2019-06-01T06:01:23.747Z,405.11
2019-06-01T06:02:23.757Z,407.03
2019-06-01T06:03:39.552Z,403.61
2019-06-01T06:04:24.717Z,405.06
2019-06-01T06:05:23.720Z,406.01
2019-06-01T06:06:23.821Z,405.48
2019-06-01T06:07:23.700Z,404.88
2019-06-01T06:08:23.671Z,405.99
2019-06-01T06:09:23.665Z,406.61
2019-06-01T06:10:23.650Z,406.93
2019-06-01T06:11:23.641Z,405.90
2019-06-01T06:12:23.645Z,406.12
2019-06-01T06:13:23.619Z,406.31
2019-06-01T06:14:23.623Z,407.45
2019-06-01T06:15:23.596Z,404.17
2019-06-01T06:16:23.588Z,404.06
2019-06-01T06:17:24.434Z,405.64
2019-06-01T06:18:23.560Z,407.81
2019-06-01T06:19:23.842Z,406.95
2019-06-01T06:20:23.529Z,404.93
2019-06-01T06:21:23.530Z,406.24
2019-06-01T06:22:23.547Z,405.58
2019-06-01T06:23:23.513Z,406.50
2019-06-01T06:24:23.496Z,406.51
2019-06-01T06:25:27.454Z,404.57
2019-06-01T06:26:24.476Z,406.19
2019-06-01T06:27:23.485Z,404.45
2019-06-01T06:28:26.522Z,406.51
2019-06-01T06:29:23.443Z,407.52
2019-06-01T06:30:23.439Z,405.15
2019-06-01T06:31:23.429Z,404.60
2019-06-01T06:32:23.503Z,403.11
2019-06-01T06:33:23.744Z,406.94
2019-06-01T06:34:23.633Z,405.63
2019-06-01T06:35:23.699Z,405.88
2019-06-01T06:36:23.831Z,405.90
2019-06-01T06:37:23.901Z,405.26
2019-06-01T06:38:24.075Z,405.58
2019-06-01T06:39:24.220Z,404.46
2019-06-01T06:40:24.269Z,405.43
2019-06-01T06:41:24.354Z,404.86
2019-06-01T06:42:24.350Z,407.87
2019-06-01T06:43:31.078Z,406.75
2019-06-01T06:44:24.808Z,405.67
2019-06-01T06:45:23.279Z,405.32
2019-06-01T06:46:23.251Z,407.55
2019-06-01T06:47:23.275Z,404.96
2019-06-01T06:48:23.359Z,406.58
2019-06-01T06:49:23.312Z,406.07
2019-06-01T06:50:23.558Z,406.26
2019-06-01T06:51:23.376Z,406.04
2019-06-01T06:52:23.611Z,405.69
2019-06-01T06:53:32.395Z,404.85
2019-06-01T06:54:24.165Z,405.69
2019-06-01T06:55:24.046Z,406.38
2019-06-01T06:56:24.033Z,407.82
2019-06-01T06:57:24.137Z,404.96
2019-06-01T06:58:24.324Z,405.84
2019-06-01T06:59:23.106Z,405.10
2019-06-01T07:00:23.104Z,405.84
2019-06-01T07:01:23.084Z,406.98
2019-06-01T07:02:23.105Z,405.48
2019-06-01T07:03:23.201Z,407.62
2019-06-01T07:04:23.305Z,406.35
2019-06-01T07:05:23.502Z,405.76
2019-06-01T07:06:23.657Z,405.65
2019-06-01T07:07:23.736Z,407.17
2019-06-01T07:08:23.911Z,405.97
2019-06-01T07:09:23.982Z,406.51
2019-06-01T07:10:24.168Z,405.42
2019-06-01T07:11:23.436Z,405.80
2019-06-01T07:12:23.309Z,406.61
2019-06-01T07:13:23.864Z,406.55
2019-06-01T07:14:23.475Z,406.44
2019-06-01T07:15:23.495Z,406.26
2019-06-01T07:16:23.514Z,408.24
2019-06-01T07:17:23.525Z,407.87
2019-06-01T07:18:23.645Z,407.80
2019-06-01T07:19:23.732Z,406.81
2019-06-01T07:20:23.710Z,409.72
2019-06-01T07:21:23.746Z,407.65
2019-06-01T07:22:23.824Z,407.76
2019-06-01T07:23:23.858Z,406.38
2019-06-01T07:24:23.803Z,406.94
2019-06-01T07:25:22.819Z,406.13
2019-06-01T07:26:23.982Z,407.07
2019-06-01T07:27:24.036Z,406.80
2019-06-01T07:28:24.030Z,408.65
2019-06-01T07:29:23.039Z,409.29
2019-06-01T07:30:22.771Z,407.83
2019-06-01T07:31:22.767Z,409.47
2019-06-01T07:32:22.785Z,411.70
2019-06-01T07:33:22.723Z,409.25
2019-06-01T07:34:33.645Z,407.56
2019-06-01T07:35:24.443Z,407.95
2019-06-01T07:36:22.706Z,407.27
2019-06-01T07:37:22.703Z,409.31
2019-06-01T07:38:22.674Z,409.49
2019-06-01T07:39:22.764Z,408.88
2019-06-01T07:40:22.954Z,408.47
2019-06-01T07:41:22.661Z,409.11
2019-06-01T07:42:24.457Z,408.61
2019-06-01T07:43:24.655Z,409.25
2019-06-01T07:44:22.871Z,408.75
2019-06-01T07:45:22.923Z,408.51
2019-06-01T07:46:22.839Z,408.94
2019-06-01T07:47:22.841Z,410.22
2019-06-01T07:48:23.114Z,409.62
2019-06-01T07:49:23.205Z,408.01
2019-06-01T07:50:22.539Z,409.29
2019-06-01T07:51:23.240Z,409.58
2019-06-01T07:52:22.541Z,408.01
2019-06-01T07:53:24.036Z,409.11
2019-06-01T07:54:22.525Z,408.41
2019-06-01T07:55:23.481Z,412.94
2019-06-01T07:56:22.652Z,411.61
2019-06-01T07:57:23.579Z,409.65
2019-06-01T07:58:22.465Z,408.78
2019-06-01T07:59:22.983Z,411.13
2019-06-01T08:00:23.992Z,409.70
2019-06-01T08:01:24.583Z,413.11
2019-06-01T08:02:25.387Z,412.06
2019-06-01T08:03:23.232Z,409.15
2019-06-01T08:04:23.955Z,408.52
2019-06-01T08:05:23.381Z,408.70
2019-06-01T08:06:23.787Z,409.12
2019-06-01T08:07:23.285Z,409.69
2019-06-01T08:08:23.362Z,410.28
2019-06-01T08:09:24.525Z,410.35
2019-06-01T08:10:23.112Z,407.98
2019-06-01T08:11:25.263Z,408.65
2019-06-01T08:12:23.338Z,409.27
2019-06-01T08:13:23.405Z,409.00
2019-06-01T08:14:22.583Z,408.30
2019-06-01T08:15:23.442Z,409.86
2019-06-01T08:16:23.567Z,410.57
2019-06-01T08:17:22.248Z,412.56
2019-06-01T08:18:22.258Z,412.17
2019-06-01T08:19:22.217Z,413.65
2019-06-01T08:20:22.347Z,409.70
2019-06-01T08:21:22.249Z,409.71
2019-06-01T08:22:22.224Z,409.19
2019-06-01T08:23:22.256Z,410.66
2019-06-01T08:24:22.223Z,410.90
2019-06-01T08:25:22.245Z,409.41
2019-06-01T08:26:22.297Z,409.21
2019-06-01T08:27:22.474Z,409.46
2019-06-01T08:28:22.401Z,411.30
2019-06-01T08:29:22.629Z,411.08
2019-06-01T08:30:22.589Z,408.53
2019-06-01T08:31:24.437Z,410.57
2019-06-01T08:32:22.666Z,408.67
2019-06-01T08:33:26.526Z,409.18
2019-06-01T08:34:23.057Z,409.89
2019-06-01T08:35:22.827Z,412.26
2019-06-01T08:36:23.124Z,408.60
2019-06-01T08:37:23.479Z,412.50
2019-06-01T08:38:23.245Z,412.31
2019-06-01T08:39:23.370Z,411.93
2019-06-01T08:40:23.202Z,410.67
2019-06-01T08:41:23.250Z,412.08
2019-06-01T08:42:23.325Z,408.93
2019-06-01T08:43:23.408Z,410.16
2019-06-01T08:44:21.947Z,410.95
2019-06-01T08:45:21.932Z,408.42
2019-06-01T08:46:21.935Z,411.21
2019-06-01T08:47:21.927Z,412.84
2019-06-01T08:48:21.935Z,409.12
2019-06-01T08:49:21.889Z,409.92
2019-06-01T08:50:21.911Z,410.45
2019-06-01T08:51:23.827Z,412.23
2019-06-01T08:52:21.920Z,408.00
2019-06-01T08:53:22.400Z,411.47
2019-06-01T08:54:21.833Z,412.34
2019-06-01T08:55:21.819Z,411.96
2019-06-01T08:56:22.201Z,410.95
2019-06-01T08:57:21.812Z,413.46
2019-06-01T08:58:21.810Z,408.76
2019-06-01T08:59:21.780Z,413.83
2019-06-01T09:00:21.763Z,412.58
2019-06-01T09:01:21.757Z,413.83
2019-06-01T09:02:21.749Z,408.99
2019-06-01T09:03:21.765Z,411.96
2019-06-01T09:04:21.723Z,407.90
2019-06-01T09:05:24.922Z,408.06
2019-06-01T09:06:21.767Z,408.64
2019-06-01T09:07:21.702Z,408.17
2019-06-01T09:08:23.957Z,408.84
2019-06-01T09:09:21.693Z,409.00
2019-06-01T09:10:21.658Z,409.06
2019-06-01T09:11:21.644Z,411.57
2019-06-01T09:12:21.643Z,411.14
2019-06-01T09:13:21.662Z,408.47
2019-06-01T09:14:21.605Z,408.85
2019-06-01T09:15:21.607Z,410.95
2019-06-01T09:16:21.607Z,409.72
2019-06-01T09:17:21.596Z,411.36
2019-06-01T09:18:21.597Z,410.42
2019-06-01T09:19:21.554Z,411.42
2019-06-01T09:20:21.549Z,413.38
2019-06-01T09:21:21.549Z,411.11
2019-06-01T09:22:21.524Z,410.33
2019-06-01T09:23:21.536Z,410.97
2019-06-01T09:24:21.512Z,409.26
2019-06-01T09:25:21.561Z,412.33
2019-06-01T09:26:21.490Z,411.12
2019-06-01T09:27:21.467Z,410.62
2019-06-01T09:28:21.478Z,409.56
2019-06-01T09:29:21.443Z,412.12
2019-06-01T09:30:21.490Z,410.88
2019-06-01T09:31:21.427Z,410.37
2019-06-01T09:32:21.423Z,410.39
2019-06-01T09:33:21.414Z,409.09
2019-06-01T09:34:21.399Z,408.68
2019-06-01T09:35:21.406Z,409.15
2019-06-01T09:36:21.377Z,414.23
2019-06-01T09:37:21.358Z,410.22
2019-06-01T09:38:21.375Z,409.47
2019-06-01T09:39:21.341Z,410.09
2019-06-01T09:40:21.330Z,413.22
2019-06-01T09:41:21.331Z,409.47
2019-06-01T09:42:21.315Z,412.13
2019-06-01T09:43:21.318Z,410.75
2019-06-01T09:44:21.292Z,408.29
2019-06-01T09:45:21.312Z,411.95
2019-06-01T09:46:21.271Z,410.12
2019-06-01T09:47:21.259Z,412.75
2019-06-01T09:48:21.274Z,411.54
2019-06-01T09:49:21.299Z,412.65
2019-06-01T09:50:21.241Z,411.20
2019-06-01T09:51:21.213Z,411.37
2019-06-01T09:52:21.228Z,411.24
2019-06-01T09:53:21.242Z,411.84
2019-06-01T09:54:21.215Z,410.78
2019-06-01T09:55:21.163Z,414.59
2019-06-01T09:56:21.156Z,414.89
2019-06-01T09:57:21.165Z,414.28
2019-06-01T09:58:21.135Z,413.75
2019-06-01T09:59:21.159Z,410.81
2019-06-01T10:00:21.111Z,413.05
2019-06-01T10:01:21.119Z,413.02
2019-06-01T10:02:21.084Z,413.70
2019-06-01T10:03:21.070Z,413.10
2019-06-01T10:04:21.087Z,414.48
2019-06-01T10:05:21.059Z,412.27
2019-06-01T10:06:21.042Z,412.60
2019-06-01T10:07:21.037Z,413.08
2019-06-01T10:08:21.020Z,411.44
2019-06-01T10:09:21.962Z,411.50
2019-06-01T10:10:21.011Z,416.65
2019-06-01T10:11:20.996Z,410.92
2019-06-01T10:12:21.023Z,411.77
2019-06-01T10:13:20.963Z,414.06
2019-06-01T10:14:20.978Z,410.67
2019-06-01T10:15:20.944Z,411.94
2019-06-01T10:16:20.932Z,417.79
2019-06-01T10:17:20.918Z,410.88
2019-06-01T10:18:20.896Z,412.18
2019-06-01T10:19:20.913Z,413.39
2019-06-01T10:20:20.887Z,414.30
2019-06-01T10:21:20.903Z,411.98
2019-06-01T10:22:20.863Z,411.57
2019-06-01T10:23:20.852Z,411.92
2019-06-01T10:24:20.869Z,411.51
2019-06-01T10:25:20.851Z,411.55
2019-06-01T10:26:20.823Z,414.96
2019-06-01T10:27:20.807Z,411.46
2019-06-01T10:28:20.805Z,411.08
2019-06-01T10:29:20.811Z,413.53
2019-06-01T10:30:20.800Z,414.45
2019-06-01T10:31:20.823Z,411.38
2019-06-01T10:32:20.750Z,409.50
2019-06-01T10:33:20.751Z,411.90
2019-06-01T10:34:20.751Z,415.32
2019-06-01T10:35:20.723Z,411.04
2019-06-01T10:36:21.614Z,412.39
2019-06-01T10:37:20.702Z,411.94
2019-06-01T10:38:20.693Z,413.05
2019-06-01T10:39:20.692Z,416.41
2019-06-01T10:40:20.676Z,412.54
2019-06-01T10:41:21.445Z,412.61
2019-06-01T10:42:20.639Z,415.36
2019-06-01T10:43:20.638Z,413.37
2019-06-01T10:44:20.664Z,414.77
2019-06-01T10:45:20.610Z,413.11
2019-06-01T10:46:20.602Z,411.30
2019-06-01T10:47:20.584Z,410.88
2019-06-01T10:48:20.572Z,414.21
2019-06-01T10:49:20.584Z,411.97
2019-06-01T10:50:20.553Z,412.80
2019-06-01T10:51:20.551Z,413.27
2019-06-01T10:52:20.533Z,413.96
2019-06-01T10:53:20.526Z,412.90
2019-06-01T10:54:20.524Z,414.90
2019-06-01T10:55:20.502Z,413.67
2019-06-01T10:56:20.499Z,413.36
2019-06-01T10:57:20.481Z,412.38
2019-06-01T10:58:20.474Z,413.18
2019-06-01T10:59:20.506Z,412.65
2019-06-01T11:00:37.065Z,417.46
2019-06-01T11:01:21.437Z,412.63
2019-06-01T11:02:20.422Z,412.69
2019-06-01T11:03:20.414Z,413.76
2019-06-01T11:04:20.416Z,413.16
2019-06-01T11:05:20.397Z,413.97
2019-06-01T11:06:36.289Z,413.03
2019-06-01T11:07:21.368Z,412.31
2019-06-01T11:08:20.359Z,409.60
2019-06-01T11:09:20.370Z,412.57
2019-06-01T11:10:20.332Z,412.12
2019-06-01T11:11:20.316Z,413.73
2019-06-01T11:12:20.316Z,411.89
2019-06-01T11:13:20.313Z,410.61
2019-06-01T11:14:20.302Z,414.09
2019-06-01T11:15:20.300Z,413.30
2019-06-01T11:16:20.271Z,409.37
2019-06-01T11:17:20.284Z,410.53
2019-06-01T11:18:20.247Z,413.68
2019-06-01T11:19:20.256Z,411.62
2019-06-01T11:20:20.226Z,415.31
2019-06-01T11:21:20.220Z,414.76
2019-06-01T11:22:20.204Z,415.34
2019-06-01T11:23:20.197Z,416.91
2019-06-01T11:24:20.202Z,414.14
2019-06-01T11:25:20.175Z,415.87
2019-06-01T11:26:20.185Z,411.49
2019-06-01T11:27:20.149Z,416.99
2019-06-01T11:28:20.147Z,414.99
2019-06-01T11:29:20.143Z,412.06
2019-06-01T11:30:20.127Z,412.85
2019-06-01T11:31:20.102Z,411.21
2019-06-01T11:32:20.097Z,410.23
2019-06-01T11:33:20.087Z,411.98
2019-06-01T11:34:20.083Z,412.32
2019-06-01T11:35:20.053Z,414.11
2019-06-01T11:36:20.057Z,414.07
2019-06-01T11:37:20.042Z,415.22
2019-06-01T11:38:20.033Z,415.54
2019-06-01T11:39:20.031Z,413.06
2019-06-01T11:40:20.011Z,410.15
2019-06-01T11:41:20.027Z,412.06
2019-06-01T11:42:20.250Z,410.89
2019-06-01T11:43:19.969Z,416.01
2019-06-01T11:44:19.968Z,414.84
2019-06-01T11:45:19.961Z,412.45
2019-06-01T11:46:19.954Z,413.49
2019-06-01T11:47:19.936Z,414.39
2019-06-01T11:48:19.918Z,415.83
2019-06-01T11:49:21.223Z,417.12
2019-06-01T11:50:19.894Z,418.83
2019-06-01T11:51:19.886Z,411.54
2019-06-01T11:52:19.870Z,414.36
2019-06-01T11:53:19.857Z,408.71
2019-06-01T11:54:19.868Z,413.65
2019-06-01T11:55:19.831Z,412.45
2019-06-01T11:56:19.828Z,414.14
2019-06-01T11:57:19.825Z,411.75
2019-06-01T11:58:19.797Z,414.11
2019-06-01T11:59:21.334Z,412.89
2019-06-01T12:00:19.785Z,414.24
2019-06-01T12:01:19.791Z,414.57
2019-06-01T12:02:19.762Z,412.03
2019-06-01T12:03:19.742Z,412.69
2019-06-01T12:04:19.736Z,411.19
2019-06-01T12:05:19.754Z,410.35
2019-06-01T12:06:19.715Z,411.13
2019-06-01T12:07:19.706Z,411.40
2019-06-01T12:08:19.701Z,412.21
2019-06-01T12:09:19.682Z,412.93
2019-06-01T12:10:19.694Z,415.47
2019-06-01T12:11:19.673Z,411.51
2019-06-01T12:12:19.656Z,412.19
2019-06-01T12:13:19.642Z,409.19
2019-06-01T12:14:19.632Z,412.03
2019-06-01T12:15:19.630Z,412.52
2019-06-01T12:16:19.614Z,417.47
2019-06-01T12:17:19.607Z,414.54
2019-06-01T12:18:19.589Z,413.72
2019-06-01T12:19:19.580Z,414.23
2019-06-01T12:20:19.596Z,404.25
2019-06-01T12:21:19.577Z,416.32
2019-06-01T12:22:19.547Z,405.37
2019-06-01T12:23:19.573Z,411.50
2019-06-01T12:24:25.369Z,412.67
2019-06-01T12:25:20.528Z,412.96
2019-06-01T12:26:19.508Z,413.86
2019-06-01T12:27:19.499Z,412.29
2019-06-01T12:28:19.477Z,413.56